createdAt,value
2023-01-19T00:01:28.999Z,97626.06
2023-01-19T00:03:55.525Z,97626.06
2023-01-19T00:06:22.119Z,97626.06
2023-01-19T00:08:50.163Z,97626.06
2023-01-19T00:11:19.749Z,97626.06
2023-01-19T00:13:49.739Z,76003.34
2023-01-19T00:16:18.147Z,97626.06
2023-01-19T00:18:45.454Z,97626.06
2023-01-19T00:21:14.681Z,76003.34
2023-01-19T00:23:42.326Z,97626.06
2023-01-19T00:26:10.204Z,76003.34
2023-01-19T00:28:36.882Z,97626.06
2023-01-19T00:31:03.455Z,97626.06
2023-01-19T00:33:30.050Z,76003.34
2023-01-19T00:35:56.503Z,60389.78
2023-01-19T00:38:23.052Z,60389.78
2023-01-19T00:40:49.401Z,60389.78
2023-01-19T00:43:16.038Z,60389.78
2023-01-19T00:48:08.940Z,60389.78
2023-01-19T00:50:35.340Z,60389.78
2023-01-19T00:53:02.350Z,60389.78
2023-01-19T00:55:30.649Z,60389.78
2023-01-19T00:57:57.720Z,60389.78
2023-01-19T01:00:24.862Z,60389.78
2023-01-19T01:02:53.108Z,60389.78
2023-01-19T01:05:20.432Z,60389.78
2023-01-19T01:07:49.446Z,60389.78
2023-01-19T01:10:21.551Z,60389.78
2023-01-19T01:13:20.553Z,60389.78
2023-01-19T01:15:35.557Z,60389.78
2023-01-19T01:18:01.945Z,60389.78
2023-01-19T01:20:30.244Z,60389.78
2023-01-19T01:22:57.232Z,60389.78
2023-01-19T01:25:28.334Z,60389.78
2023-01-19T01:27:55.474Z,60389.78
2023-01-19T01:30:22.425Z,60389.78
2023-01-19T01:32:48.938Z,60389.78
2023-01-19T01:35:15.420Z,60389.78
2023-01-19T01:38:32.951Z,97726.84
2023-01-19T01:40:59.444Z,97728.75
2023-01-19T01:43:42.760Z,97726.38
2023-01-19T01:46:09.255Z,97731.72
2023-01-19T01:48:38.816Z,97734.84
2023-01-19T01:51:26.159Z,97734.50
2023-01-19T01:54:01.095Z,97738.66
2023-01-19T01:56:43.456Z,97735.44
2023-01-19T01:59:25.686Z,97744.38
2023-01-19T02:02:15.966Z,97739.84
2023-01-19T02:04:57.015Z,97737.22
2023-01-19T02:07:51.597Z,97740.22
2023-01-19T02:10:37.058Z,97737.00
2023-01-19T02:13:21.917Z,97732.69
2023-01-19T02:15:58.272Z,97736.97
2023-01-19T02:18:28.187Z,97733.25
2023-01-19T02:21:20.332Z,97731.09
2023-01-19T02:23:53.585Z,97722.50
2023-01-19T02:26:21.673Z,97733.88
2023-01-19T02:28:57.368Z,97733.25
2023-01-19T02:31:24.876Z,97728.69
2023-01-19T02:33:52.692Z,97727.28
2023-01-19T02:36:24.668Z,97723.22
2023-01-19T02:38:56.030Z,97728.84
2023-01-19T02:41:27.858Z,97729.19
2023-01-19T02:43:57.315Z,97739.69
2023-01-19T02:46:24.092Z,97738.50
2023-01-19T02:48:50.533Z,97736.84
2023-01-19T02:51:24.622Z,97733.63
2023-01-19T02:54:32.275Z,97733.97
2023-01-19T02:57:39.892Z,97734.69
2023-01-19T03:00:27.987Z,97724.41
2023-01-19T03:03:05.861Z,97730.88
2023-01-19T03:05:53.673Z,97728.00
2023-01-19T03:08:30.817Z,97732.31
2023-01-19T03:11:05.091Z,97736.34
2023-01-19T03:14:00.888Z,97732.31
2023-01-19T03:16:42.229Z,97728.63
2023-01-19T03:19:22.195Z,97732.19
2023-01-19T03:21:54.456Z,97729.19
2023-01-19T03:24:23.240Z,97724.47
2023-01-19T03:26:58.692Z,97735.78
2023-01-19T03:29:29.953Z,97725.41
2023-01-19T03:31:59.661Z,97726.84
2023-01-19T03:34:28.448Z,97729.09
2023-01-19T03:36:59.278Z,97729.47
2023-01-19T03:39:26.892Z,97729.47
2023-01-19T03:41:58.498Z,97737.84
2023-01-19T03:44:27.200Z,97738.41
2023-01-19T03:46:55.219Z,97739.38
2023-01-19T03:49:21.876Z,97739.50
2023-01-19T03:51:48.389Z,97739.13
2023-01-19T03:54:14.697Z,97735.69
2023-01-19T03:56:43.683Z,97739.28
2023-01-19T03:59:10.096Z,97740.22
2023-01-19T04:01:36.559Z,97735.56
2023-01-19T04:04:02.991Z,97734.50
2023-01-19T04:06:29.492Z,97733.53
2023-01-19T04:08:55.854Z,97739.63
2023-01-19T04:11:22.245Z,97741.66
2023-01-19T04:13:48.891Z,97746.06
2023-01-19T04:16:19.891Z,97746.06
2023-01-19T04:18:46.535Z,97746.06
2023-01-19T04:21:12.839Z,97746.06
2023-01-19T04:23:39.277Z,97746.06
2023-01-19T04:26:07.550Z,97746.06
2023-01-19T04:28:36.915Z,97746.06
2023-01-19T04:31:04.480Z,97746.06
2023-01-19T04:33:31.037Z,97746.06
2023-01-19T04:35:57.886Z,97746.06
2023-01-19T04:38:25.561Z,97746.06
2023-01-19T04:40:53.488Z,97746.06
2023-01-19T04:43:21.061Z,97746.06
2023-01-19T04:45:48.490Z,97746.06
2023-01-19T04:48:15.830Z,97746.06
2023-01-19T04:50:42.404Z,97746.06
2023-01-19T04:53:08.749Z,97746.06
2023-01-19T04:55:35.150Z,97746.06
2023-01-19T04:58:01.624Z,97746.06
2023-01-19T05:00:28.197Z,97746.06
2023-01-19T05:02:54.846Z,97746.06
2023-01-19T05:05:21.822Z,97746.06
2023-01-19T05:07:48.220Z,97746.06
2023-01-19T05:10:14.623Z,97746.06
2023-01-19T05:12:42.152Z,97746.06
2023-01-19T05:15:09.861Z,97746.06
2023-01-19T05:17:36.664Z,97746.06
2023-01-19T05:20:04.186Z,97746.06
2023-01-19T05:22:30.585Z,97746.06
2023-01-19T05:24:56.992Z,97746.06
2023-01-19T05:27:23.717Z,97746.06
2023-01-19T05:29:50.094Z,97746.06
2023-01-19T05:32:16.502Z,97746.06
2023-01-19T05:34:43.018Z,76246.50
2023-01-19T05:37:09.377Z,97746.06
2023-01-19T05:39:35.765Z,97746.06
2023-01-19T05:42:02.516Z,76246.50
2023-01-19T05:44:29.507Z,76246.50
2023-01-19T05:46:56.085Z,76246.50
2023-01-19T05:49:22.611Z,76246.50
2023-01-19T05:56:42.480Z,76246.50
2023-01-19T06:01:38.943Z,97746.06
2023-01-19T06:04:06.406Z,60389.78
2023-01-19T06:06:32.738Z,60389.78
2023-01-19T06:08:59.161Z,76246.50
2023-01-19T06:11:26.173Z,60389.78
2023-01-19T06:13:52.659Z,60389.78
2023-01-19T06:16:19.108Z,60389.78
2023-01-19T06:18:45.817Z,60389.78
2023-01-19T06:21:14.122Z,60389.78
2023-01-19T06:23:40.625Z,60389.78
2023-01-19T06:26:07.190Z,60389.78
2023-01-19T06:28:33.795Z,60389.78
2023-01-19T06:31:00.281Z,60389.78
2023-01-19T06:33:27.907Z,60389.78
2023-01-19T06:35:54.809Z,60389.78
2023-01-19T06:38:22.976Z,60389.78
2023-01-19T06:40:55.251Z,60389.78
2023-01-19T06:43:21.901Z,60389.78
2023-01-19T06:45:48.579Z,60389.78
2023-01-19T06:48:15.984Z,60389.78
2023-01-19T06:50:45.160Z,60389.78
2023-01-19T06:53:12.184Z,60389.78
2023-01-19T06:55:39.281Z,60389.78
2023-01-19T06:58:06.403Z,60389.78
2023-01-19T07:00:32.812Z,60389.78
2023-01-19T07:02:59.708Z,60389.78
2023-01-19T07:05:26.480Z,60389.78
2023-01-19T07:07:56.583Z,60389.78
2023-01-19T07:11:59.978Z,97848.66
2023-01-19T07:14:33.183Z,97844.63
2023-01-19T07:17:00.119Z,97838.44
2023-01-19T07:19:26.525Z,97838.78
2023-01-19T07:21:52.973Z,97842.41
2023-01-19T07:24:19.506Z,97834.28
2023-01-19T07:26:46.073Z,97843.38
2023-01-19T07:29:12.518Z,97843.38
2023-01-19T07:31:39.473Z,97840.06
2023-01-19T07:34:06.855Z,97842.91
2023-01-19T07:36:33.514Z,97835.75
2023-01-19T07:39:02.787Z,97839.19
2023-01-19T07:41:29.502Z,97838.63
2023-01-19T07:43:56.041Z,97839.34
2023-01-19T07:46:22.516Z,97848.19
2023-01-19T07:48:49.136Z,97849.25
2023-01-19T07:51:18.697Z,97850.94
2023-01-19T07:53:46.055Z,97855.22
2023-01-19T07:56:12.763Z,97844.72
2023-01-19T07:58:39.758Z,97854.03
2023-01-19T08:01:08.361Z,97856.31
2023-01-19T08:03:34.805Z,97859.41
2023-01-19T08:06:02.343Z,97858.94
2023-01-19T08:08:32.972Z,97859.78
2023-01-19T08:11:00.104Z,97868.63
2023-01-19T08:13:27.147Z,97875.31
2023-01-19T08:15:57.498Z,97871.72
2023-01-19T08:18:24.151Z,97879.72
2023-01-19T08:20:50.590Z,97868.84
2023-01-19T08:23:18.043Z,97872.53
2023-01-19T08:25:45.735Z,97870.63
2023-01-19T08:28:15.029Z,97873.84
2023-01-19T08:30:44.305Z,97874.53
2023-01-19T08:33:14.169Z,97878.97
2023-01-19T08:35:42.757Z,97890.66
2023-01-19T08:38:09.924Z,97887.41
2023-01-19T08:40:41.861Z,97890.84
2023-01-19T08:43:14.443Z,97898.00
2023-01-19T08:45:48.103Z,97893.47
2023-01-19T08:48:16.941Z,97897.97
2023-01-19T08:50:46.588Z,97901.06
2023-01-19T08:53:13.035Z,97903.38
2023-01-19T08:55:39.662Z,97905.97
2023-01-19T08:58:08.568Z,97902.41
2023-01-19T09:00:37.908Z,97904.41
2023-01-19T09:03:06.444Z,97905.66
2023-01-19T09:05:37.146Z,97911.56
2023-01-19T09:08:06.121Z,97909.69
2023-01-19T09:10:35.841Z,97909.78
2023-01-19T09:13:04.924Z,97909.84
2023-01-19T09:15:33.921Z,97909.56
2023-01-19T09:18:00.891Z,97907.63
2023-01-19T09:20:30.801Z,97907.91
2023-01-19T09:22:58.306Z,97900.25
2023-01-19T09:25:24.977Z,97900.69
2023-01-19T09:27:54.335Z,97899.66
2023-01-19T09:30:20.972Z,97902.88
2023-01-19T09:32:47.433Z,97896.56
2023-01-19T09:35:13.949Z,97897.97
2023-01-19T09:37:40.315Z,97899.97
2023-01-19T09:40:10.002Z,97897.28
2023-01-19T09:42:44.609Z,97894.84
2023-01-19T09:45:18.673Z,97896.69
2023-01-19T09:47:48.562Z,97903.19
2023-01-19T09:50:27.555Z,97910.53
2023-01-19T09:53:01.311Z,97912.72
2023-01-19T09:55:28.537Z,97904.44
2023-01-19T09:57:55.037Z,97900.41
2023-01-19T10:00:24.152Z,97904.59
2023-01-19T10:03:04.935Z,97901.25
2023-01-19T10:05:42.306Z,97910.16
2023-01-19T10:08:40.923Z,97904.16
2023-01-19T10:11:26.294Z,97905.72
2023-01-19T10:13:54.120Z,97906.00
2023-01-19T10:16:38.750Z,97910.44
2023-01-19T10:19:29.361Z,97915.59
2023-01-19T10:22:00.172Z,97910.56
2023-01-19T10:24:40.168Z,97907.09
2023-01-19T10:27:17.840Z,97914.59
2023-01-19T10:29:45.620Z,97914.72
2023-01-19T10:32:19.990Z,97917.75
2023-01-19T10:34:47.547Z,97917.78
2023-01-19T10:37:30.919Z,97910.28
2023-01-19T10:40:02.534Z,97910.28
2023-01-19T10:42:30.798Z,97910.28
2023-01-19T10:44:57.815Z,97910.28
2023-01-19T10:47:36.699Z,97910.28
2023-01-19T10:50:24.237Z,97910.28
2023-01-19T10:52:52.848Z,97910.28
2023-01-19T10:55:31.715Z,97910.28
2023-01-19T10:57:59.279Z,97910.28
2023-01-19T11:00:30.156Z,97910.28
2023-01-19T11:02:56.652Z,97910.28
2023-01-19T11:05:28.932Z,97910.28
2023-01-19T11:07:56.194Z,97910.28
2023-01-19T11:10:28.654Z,97910.28
2023-01-19T11:12:58.370Z,97910.28
2023-01-19T11:15:34.844Z,97910.28
2023-01-19T11:18:03.903Z,97910.28
2023-01-19T11:20:48.114Z,97910.28
2023-01-19T11:23:14.454Z,97910.28
2023-01-19T11:25:46.273Z,97910.28
2023-01-19T11:28:22.475Z,97910.28
2023-01-19T11:31:02.885Z,75933.88
2023-01-19T11:33:37.676Z,97910.28
2023-01-19T11:36:13.978Z,97910.28
2023-01-19T11:38:43.477Z,97910.28
2023-01-19T11:41:22.568Z,97910.28
2023-01-19T11:43:55.302Z,75933.88
2023-01-19T11:46:24.961Z,97910.28
2023-01-19T11:49:11.747Z,97910.28
2023-01-19T11:51:56.351Z,75933.88
2023-01-19T11:54:29.595Z,75933.88
2023-01-19T11:57:00.198Z,75933.88
2023-01-19T11:59:26.701Z,75933.88
2023-01-19T12:04:30.307Z,60389.78
2023-01-19T12:09:31.634Z,60389.78
2023-01-19T12:12:07.433Z,60389.78
2023-01-19T12:15:06.700Z,60389.78
2023-01-19T12:17:47.550Z,60389.78
2023-01-19T12:20:44.556Z,60389.78
2023-01-19T12:23:10.952Z,60389.78
2023-01-19T12:25:43.663Z,60389.78
2023-01-19T12:33:33.361Z,60389.78
2023-01-19T12:36:33.116Z,60389.78
2023-01-19T12:39:08.852Z,60389.78
2023-01-19T12:41:40.943Z,60389.78
2023-01-19T12:44:16.644Z,60389.78
2023-01-19T12:49:26.862Z,60389.78
2023-01-19T12:52:10.769Z,60389.78
2023-01-19T12:54:40.447Z,60389.78
2023-01-19T12:57:31.604Z,60389.78
2023-01-19T13:00:00.345Z,60389.78
2023-01-19T13:02:26.956Z,60389.78
2023-01-19T13:05:12.567Z,60389.78
2023-01-19T13:08:07.216Z,60389.78
2023-01-19T13:10:53.375Z,60389.78
2023-01-19T13:13:30.265Z,60389.78
2023-01-19T13:16:20.089Z,60389.78
2023-01-19T13:18:49.603Z,60389.78
2023-01-19T13:21:36.096Z,60389.78
2023-01-19T13:24:12.336Z,60389.78
2023-01-19T13:26:43.095Z,60389.78
2023-01-19T13:29:25.697Z,60389.78
2023-01-19T13:31:54.773Z,60389.78
2023-01-19T13:34:24.545Z,60389.78
2023-01-19T13:36:54.366Z,60389.78
2023-01-19T13:39:29.056Z,60389.78
2023-01-19T13:42:02.040Z,60389.78
2023-01-19T13:44:34.997Z,60389.78
2023-01-19T13:47:04.430Z,60389.78
2023-01-19T13:49:34.963Z,60389.78
2023-01-19T13:52:16.871Z,60389.78
2023-01-19T13:54:53.176Z,60389.78
2023-01-19T13:57:29.911Z,60389.78
2023-01-19T14:00:11.897Z,60389.78
2023-01-19T14:02:40.113Z,60389.78
2023-01-19T14:05:23.524Z,60389.78
2023-01-19T14:08:12.057Z,60389.78
2023-01-19T14:10:39.961Z,60389.78
2023-01-19T14:13:13.104Z,60389.78
2023-01-19T14:15:40.637Z,60389.78
2023-01-19T14:18:28.627Z,60389.78
2023-01-19T14:21:01.231Z,60389.78
2023-01-19T14:24:10.470Z,60389.78
2023-01-19T14:26:51.249Z,60389.78
2023-01-19T14:29:34.878Z,60389.78
2023-01-19T14:32:01.456Z,60389.78
2023-01-19T14:34:31.795Z,60389.78
2023-01-19T14:36:59.052Z,60389.78
2023-01-19T14:39:28.863Z,60389.78
2023-01-19T14:41:58.870Z,60389.78
2023-01-19T14:44:33.719Z,60389.78
2023-01-19T14:47:01.115Z,60389.78
2023-01-19T14:49:34.646Z,60389.78
2023-01-19T14:52:04.970Z,60389.78
2023-01-19T14:54:40.449Z,60389.78
2023-01-19T14:57:13.046Z,60389.78
2023-01-19T14:59:40.694Z,60389.78
2023-01-19T15:02:08.596Z,60389.78
2023-01-19T15:04:35.096Z,60389.78
2023-01-19T15:07:01.637Z,60389.78
2023-01-19T15:09:28.317Z,60389.78
2023-01-19T15:11:54.892Z,60389.78
2023-01-19T15:14:21.739Z,60389.78
2023-01-19T15:16:48.866Z,60389.78
2023-01-19T15:19:17.767Z,60389.78
2023-01-19T15:21:46.713Z,60389.78
2023-01-19T15:24:14.909Z,60389.78
2023-01-19T15:26:43.136Z,60389.78
2023-01-19T15:29:29.492Z,60389.78
2023-01-19T15:31:57.154Z,60389.78
2023-01-19T15:34:23.620Z,60389.78
2023-01-19T15:36:50.569Z,60389.78
2023-01-19T15:39:17.467Z,60389.78
2023-01-19T15:41:45.179Z,60389.78
2023-01-19T15:44:13.105Z,60389.78
2023-01-19T15:46:40.011Z,60389.78
2023-01-19T15:49:06.997Z,60389.78
2023-01-19T15:51:38.533Z,60389.78
2023-01-19T15:54:45.337Z,60389.78
2023-01-19T15:58:14.325Z,60389.78
2023-01-19T16:01:39.965Z,60389.78
2023-01-19T16:05:05.928Z,60389.78
2023-01-19T16:08:32.664Z,60389.78
2023-01-19T16:12:00.857Z,60389.78
2023-01-19T16:15:27.338Z,60389.78
2023-01-19T16:18:52.304Z,60389.78
2023-01-19T16:22:17.270Z,60389.78
2023-01-19T16:25:40.265Z,60389.78
2023-01-19T16:28:59.920Z,60389.78
2023-01-19T16:32:24.886Z,60389.78
2023-01-19T16:35:49.868Z,60389.78
2023-01-19T16:39:15.269Z,60389.78
2023-01-19T16:42:41.710Z,60389.78
2023-01-19T16:46:06.883Z,60389.78
2023-01-19T16:49:32.389Z,60389.78
2023-01-19T16:52:57.661Z,60389.78
2023-01-19T16:56:22.766Z,60389.78
2023-01-19T16:59:51.531Z,60389.78
2023-01-19T17:03:16.501Z,60389.78
2023-01-19T17:06:46.691Z,60389.78
2023-01-19T17:10:12.757Z,60389.78
2023-01-19T17:13:40.787Z,60389.78
2023-01-19T17:17:09.236Z,60389.78
2023-01-19T17:20:34.446Z,60389.78
2023-01-19T17:24:00.067Z,60389.78
2023-01-19T17:27:26.066Z,60389.78
2023-01-19T17:30:51.844Z,60389.78
2023-01-19T17:34:17.454Z,60389.78
2023-01-19T17:37:42.422Z,60389.78
2023-01-19T17:41:14.569Z,60389.78
2023-01-19T17:44:44.581Z,60389.78
2023-01-19T17:48:09.539Z,60389.78
2023-01-19T17:51:34.581Z,60389.78
2023-01-19T17:54:59.801Z,60389.78
2023-01-19T17:59:58.938Z,97843.97
2023-01-19T18:02:26.025Z,97846.59
2023-01-19T18:04:52.852Z,97842.56
2023-01-19T18:07:19.454Z,97841.97
2023-01-19T18:09:45.825Z,97840.03
2023-01-19T18:12:12.446Z,97842.84
2023-01-19T18:14:38.763Z,97840.31
2023-01-19T18:17:05.257Z,97841.44
2023-01-19T18:19:31.712Z,97841.53
2023-01-19T18:21:58.198Z,97832.38
2023-01-19T18:24:24.662Z,97840.41
2023-01-19T18:26:51.341Z,97834.69
2023-01-19T18:29:19.267Z,97834.69
2023-01-19T18:31:46.920Z,97835.00
2023-01-19T18:34:13.444Z,97833.19
2023-01-19T18:36:40.004Z,97833.19
2023-01-19T18:39:06.605Z,97829.16
2023-01-19T18:41:36.915Z,97829.16
2023-01-19T18:44:03.406Z,97829.16
2023-01-19T18:46:31.193Z,97829.16
2023-01-19T18:48:57.755Z,97829.16
2023-01-19T18:51:24.174Z,97829.16
2023-01-19T18:53:52.208Z,97829.16
2023-01-19T18:56:18.683Z,97829.16
2023-01-19T18:58:45.560Z,97829.16
2023-01-19T19:01:20.169Z,97829.16
2023-01-19T19:03:47.357Z,75995.16
2023-01-19T19:06:14.533Z,97829.16
2023-01-19T19:08:41.129Z,75995.16
2023-01-19T19:13:34.277Z,75995.16
2023-01-19T19:16:04.409Z,60389.78
2023-01-19T19:18:31.440Z,60389.78
2023-01-19T19:23:24.550Z,60389.78
2023-01-19T19:25:50.993Z,60389.78
2023-01-19T19:28:18.257Z,60389.78
2023-01-19T19:30:46.576Z,60389.78
2023-01-19T19:33:13.347Z,60389.78
2023-01-19T19:35:40.119Z,60389.78
2023-01-19T19:38:07.123Z,60389.78
2023-01-19T19:40:37.391Z,60389.78
2023-01-19T19:43:04.695Z,60389.78
2023-01-19T19:45:31.802Z,60389.78
2023-01-19T19:47:58.584Z,60389.78
2023-01-19T19:50:24.935Z,60389.78
2023-01-19T19:52:51.848Z,60389.78
2023-01-19T19:55:18.497Z,60389.78
2023-01-19T19:57:44.997Z,60389.78
2023-01-19T20:00:12.568Z,60389.78
2023-01-19T20:02:39.608Z,60389.78
2023-01-19T20:05:06.337Z,60389.78
2023-01-19T20:07:33.255Z,60389.78
2023-01-19T20:10:00.038Z,60389.78
2023-01-19T20:12:27.911Z,60389.78
2023-01-19T20:14:54.674Z,60389.78
2023-01-19T20:17:21.508Z,60389.78
2023-01-19T20:20:04.910Z,60389.78
2023-01-19T20:22:34.762Z,60389.78
2023-01-19T20:25:01.695Z,60389.78
2023-01-19T20:27:29.757Z,60389.78
